sensor_id;sensor_type;location;lat;lon;timestamp;P1;durP1;ratioP1;P2;durP2;ratioP2
12631;SDS011;6381;45.748;12.106;2023-07-31T00:00:35;3.97;;;3.55;;
12631;SDS011;6381;45.748;12.106;2023-07-31T00:03:07;5.22;;;3.40;;
12631;SDS011;6381;45.748;12.106;2023-07-31T00:05:37;3.70;;;3.40;;
12631;SDS011;6381;45.748;12.106;2023-07-31T00:08:09;3.55;;;3.25;;
12631;SDS011;6381;45.748;12.106;2023-07-31T00:10:40;3.83;;;3.53;;
12631;SDS011;6381;45.748;12.106;2023-07-31T00:13:11;3.72;;;3.38;;
12631;SDS011;6381;45.748;12.106;2023-07-31T00:15:41;4.20;;;3.90;;
12631;SDS011;6381;45.748;12.106;2023-07-31T00:18:11;5.32;;;4.00;;
12631;SDS011;6381;45.748;12.106;2023-07-31T00:20:42;6.70;;;4.00;;
12631;SDS011;6381;45.748;12.106;2023-07-31T00:23:14;4.10;;;3.80;;
12631;SDS011;6381;45.748;12.106;2023-07-31T00:25:44;5.07;;;4.00;;
12631;SDS011;6381;45.748;12.106;2023-07-31T00:28:14;4.10;;;3.80;;
12631;SDS011;6381;45.748;12.106;2023-07-31T00:30:45;4.07;;;3.78;;
12631;SDS011;6381;45.748;12.106;2023-07-31T00:33:17;3.90;;;3.60;;
12631;SDS011;6381;45.748;12.106;2023-07-31T00:35:48;4.15;;;3.80;;
12631;SDS011;6381;45.748;12.106;2023-07-31T00:38:20;4.20;;;3.88;;
12631;SDS011;6381;45.748;12.106;2023-07-31T00:40:50;4.30;;;3.90;;
12631;SDS011;6381;45.748;12.106;2023-07-31T00:43:20;4.57;;;4.05;;
12631;SDS011;6381;45.748;12.106;2023-07-31T00:45:50;4.13;;;3.72;;
12631;SDS011;6381;45.748;12.106;2023-07-31T00:48:21;6.15;;;4.03;;
12631;SDS011;6381;45.748;12.106;2023-07-31T00:50:51;4.35;;;3.88;;
12631;SDS011;6381;45.748;12.106;2023-07-31T00:53:24;4.20;;;3.90;;
12631;SDS011;6381;45.748;12.106;2023-07-31T00:55:54;4.30;;;3.85;;
12631;SDS011;6381;45.748;12.106;2023-07-31T00:58:25;5.32;;;4.30;;
12631;SDS011;6381;45.748;12.106;2023-07-31T01:00:57;4.18;;;3.88;;
12631;SDS011;6381;45.748;12.106;2023-07-31T01:03:29;5.63;;;4.00;;
12631;SDS011;6381;45.748;12.106;2023-07-31T01:06:05;4.57;;;4.03;;
12631;SDS011;6381;45.748;12.106;2023-07-31T01:08:48;4.05;;;3.75;;
12631;SDS011;6381;45.748;12.106;2023-07-31T01:11:25;4.20;;;3.90;;
12631;SDS011;6381;45.748;12.106;2023-07-31T01:13:58;4.57;;;3.60;;
12631;SDS011;6381;45.748;12.106;2023-07-31T01:16:28;4.75;;;3.90;;
12631;SDS011;6381;45.748;12.106;2023-07-31T01:18:59;6.45;;;4.03;;
12631;SDS011;6381;45.748;12.106;2023-07-31T01:21:37;5.38;;;4.20;;
12631;SDS011;6381;45.748;12.106;2023-07-31T01:24:23;4.00;;;3.70;;
12631;SDS011;6381;45.748;12.106;2023-07-31T01:27:06;5.60;;;4.13;;
12631;SDS011;6381;45.748;12.106;2023-07-31T01:29:42;4.38;;;3.80;;
12631;SDS011;6381;45.748;12.106;2023-07-31T01:32:16;4.53;;;4.20;;
12631;SDS011;6381;45.748;12.106;2023-07-31T01:34:50;6.38;;;4.10;;
12631;SDS011;6381;45.748;12.106;2023-07-31T01:37:21;4.43;;;4.10;;
12631;SDS011;6381;45.748;12.106;2023-07-31T01:39:56;4.28;;;3.95;;
12631;SDS011;6381;45.748;12.106;2023-07-31T01:42:28;5.22;;;4.05;;
12631;SDS011;6381;45.748;12.106;2023-07-31T01:44:58;4.13;;;3.83;;
12631;SDS011;6381;45.748;12.106;2023-07-31T01:47:29;4.32;;;3.92;;
12631;SDS011;6381;45.748;12.106;2023-07-31T01:49:59;4.03;;;3.72;;
12631;SDS011;6381;45.748;12.106;2023-07-31T01:52:29;3.80;;;3.50;;
12631;SDS011;6381;45.748;12.106;2023-07-31T01:54:59;4.05;;;3.75;;
12631;SDS011;6381;45.748;12.106;2023-07-31T01:57:31;4.10;;;3.70;;
12631;SDS011;6381;45.748;12.106;2023-07-31T02:00:02;3.80;;;3.50;;
12631;SDS011;6381;45.748;12.106;2023-07-31T02:02:37;3.88;;;3.58;;
12631;SDS011;6381;45.748;12.106;2023-07-31T02:05:07;4.00;;;3.70;;
12631;SDS011;6381;45.748;12.106;2023-07-31T02:07:38;4.22;;;3.83;;
12631;SDS011;6381;45.748;12.106;2023-07-31T02:10:08;3.80;;;3.50;;
12631;SDS011;6381;45.748;12.106;2023-07-31T02:12:40;4.13;;;3.72;;
12631;SDS011;6381;45.748;12.106;2023-07-31T02:15:10;3.97;;;3.67;;
12631;SDS011;6381;45.748;12.106;2023-07-31T02:17:40;3.63;;;3.33;;
12631;SDS011;6381;45.748;12.106;2023-07-31T02:20:11;4.88;;;4.20;;
12631;SDS011;6381;45.748;12.106;2023-07-31T02:22:41;5.68;;;5.07;;
12631;SDS011;6381;45.748;12.106;2023-07-31T02:25:12;5.30;;;4.80;;
12631;SDS011;6381;45.748;12.106;2023-07-31T02:27:44;5.22;;;4.25;;
12631;SDS011;6381;45.748;12.106;2023-07-31T02:30:15;4.20;;;3.78;;
12631;SDS011;6381;45.748;12.106;2023-07-31T02:32:45;4.38;;;3.97;;
12631;SDS011;6381;45.748;12.106;2023-07-31T02:35:15;4.22;;;3.92;;
12631;SDS011;6381;45.748;12.106;2023-07-31T02:37:46;4.15;;;3.60;;
12631;SDS011;6381;45.748;12.106;2023-07-31T02:40:17;3.78;;;3.47;;
12631;SDS011;6381;45.748;12.106;2023-07-31T02:42:48;3.45;;;3.10;;
12631;SDS011;6381;45.748;12.106;2023-07-31T02:45:19;4.22;;;3.65;;
12631;SDS011;6381;45.748;12.106;2023-07-31T02:47:50;4.47;;;3.58;;
12631;SDS011;6381;45.748;12.106;2023-07-31T02:50:20;3.90;;;3.50;;
12631;SDS011;6381;45.748;12.106;2023-07-31T02:52:51;3.50;;;3.20;;
12631;SDS011;6381;45.748;12.106;2023-07-31T02:55:21;3.58;;;3.28;;
12631;SDS011;6381;45.748;12.106;2023-07-31T02:57:53;3.40;;;3.20;;
12631;SDS011;6381;45.748;12.106;2023-07-31T03:00:23;3.80;;;3.50;;
12631;SDS011;6381;45.748;12.106;2023-07-31T03:02:54;3.70;;;3.40;;
12631;SDS011;6381;45.748;12.106;2023-07-31T03:05:24;3.75;;;3.40;;
12631;SDS011;6381;45.748;12.106;2023-07-31T03:07:55;3.50;;;3.20;;
12631;SDS011;6381;45.748;12.106;2023-07-31T03:10:25;3.60;;;3.28;;
12631;SDS011;6381;45.748;12.106;2023-07-31T03:12:57;3.92;;;3.45;;
12631;SDS011;6381;45.748;12.106;2023-07-31T03:15:27;3.70;;;3.40;;
12631;SDS011;6381;45.748;12.106;2023-07-31T03:17:57;6.28;;;3.40;;
12631;SDS011;6381;45.748;12.106;2023-07-31T03:20:28;3.70;;;3.40;;
12631;SDS011;6381;45.748;12.106;2023-07-31T03:22:59;3.70;;;3.22;;
12631;SDS011;6381;45.748;12.106;2023-07-31T03:25:29;5.00;;;3.60;;
12631;SDS011;6381;45.748;12.106;2023-07-31T03:28:01;3.60;;;3.30;;
12631;SDS011;6381;45.748;12.106;2023-07-31T03:30:31;3.88;;;3.40;;
12631;SDS011;6381;45.748;12.106;2023-07-31T03:33:05;4.38;;;3.20;;
12631;SDS011;6381;45.748;12.106;2023-07-31T03:35:35;3.90;;;3.25;;
12631;SDS011;6381;45.748;12.106;2023-07-31T03:38:06;3.55;;;3.33;;
12631;SDS011;6381;45.748;12.106;2023-07-31T03:40:38;3.85;;;3.15;;
12631;SDS011;6381;45.748;12.106;2023-07-31T03:43:11;3.30;;;3.05;;
12631;SDS011;6381;45.748;12.106;2023-07-31T03:45:42;3.90;;;3.53;;
12631;SDS011;6381;45.748;12.106;2023-07-31T03:48:13;3.88;;;3.30;;
12631;SDS011;6381;45.748;12.106;2023-07-31T03:50:47;4.75;;;3.67;;
12631;SDS011;6381;45.748;12.106;2023-07-31T03:53:18;3.85;;;3.38;;
12631;SDS011;6381;45.748;12.106;2023-07-31T03:55:48;3.90;;;3.60;;
12631;SDS011;6381;45.748;12.106;2023-07-31T03:58:20;3.65;;;3.20;;
12631;SDS011;6381;45.748;12.106;2023-07-31T04:00:51;3.97;;;3.50;;
12631;SDS011;6381;45.748;12.106;2023-07-31T04:03:22;3.60;;;3.15;;
12631;SDS011;6381;45.748;12.106;2023-07-31T04:05:53;3.92;;;3.28;;
12631;SDS011;6381;45.748;12.106;2023-07-31T04:08:24;4.22;;;3.10;;
12631;SDS011;6381;45.748;12.106;2023-07-31T04:10:54;3.83;;;3.38;;
12631;SDS011;6381;45.748;12.106;2023-07-31T04:13:28;3.95;;;3.35;;
12631;SDS011;6381;45.748;12.106;2023-07-31T04:16:00;3.50;;;3.20;;
12631;SDS011;6381;45.748;12.106;2023-07-31T04:18:30;3.30;;;3.00;;
12631;SDS011;6381;45.748;12.106;2023-07-31T04:21:00;4.10;;;3.70;;
12631;SDS011;6381;45.748;12.106;2023-07-31T04:23:31;3.92;;;3.40;;
12631;SDS011;6381;45.748;12.106;2023-07-31T04:26:01;3.60;;;3.35;;
12631;SDS011;6381;45.748;12.106;2023-07-31T04:28:33;3.63;;;3.33;;
12631;SDS011;6381;45.748;12.106;2023-07-31T04:31:04;5.80;;;3.30;;
12631;SDS011;6381;45.748;12.106;2023-07-31T04:33:34;7.82;;;3.55;;
12631;SDS011;6381;45.748;12.106;2023-07-31T04:36:04;7.25;;;3.90;;
12631;SDS011;6381;45.748;12.106;2023-07-31T04:38:36;3.85;;;3.53;;
12631;SDS011;6381;45.748;12.106;2023-07-31T04:41:06;3.97;;;3.58;;
12631;SDS011;6381;45.748;12.106;2023-07-31T04:43:39;4.25;;;3.47;;
12631;SDS011;6381;45.748;12.106;2023-07-31T04:46:09;4.70;;;3.40;;
12631;SDS011;6381;45.748;12.106;2023-07-31T04:48:42;3.38;;;3.08;;
12631;SDS011;6381;45.748;12.106;2023-07-31T04:51:12;8.07;;;3.78;;
12631;SDS011;6381;45.748;12.106;2023-07-31T04:53:44;4.25;;;3.70;;
12631;SDS011;6381;45.748;12.106;2023-07-31T04:56:15;4.10;;;3.50;;
12631;SDS011;6381;45.748;12.106;2023-07-31T04:58:47;4.07;;;3.50;;
12631;SDS011;6381;45.748;12.106;2023-07-31T05:01:18;4.10;;;3.20;;
12631;SDS011;6381;45.748;12.106;2023-07-31T05:03:49;3.58;;;3.17;;
12631;SDS011;6381;45.748;12.106;2023-07-31T05:06:19;4.10;;;3.70;;
12631;SDS011;6381;45.748;12.106;2023-07-31T05:08:49;4.82;;;3.08;;
12631;SDS011;6381;45.748;12.106;2023-07-31T05:11:20;6.32;;;3.00;;
12631;SDS011;6381;45.748;12.106;2023-07-31T05:13:52;4.38;;;3.00;;
12631;SDS011;6381;45.748;12.106;2023-07-31T05:16:22;3.30;;;3.00;;
12631;SDS011;6381;45.748;12.106;2023-07-31T05:18:53;4.05;;;2.90;;
12631;SDS011;6381;45.748;12.106;2023-07-31T05:21:24;4.45;;;2.83;;
12631;SDS011;6381;45.748;12.106;2023-07-31T05:23:55;2.70;;;2.50;;
12631;SDS011;6381;45.748;12.106;2023-07-31T05:26:25;3.88;;;2.75;;
12631;SDS011;6381;45.748;12.106;2023-07-31T05:28:56;4.32;;;2.90;;
12631;SDS011;6381;45.748;12.106;2023-07-31T05:31:27;2.70;;;2.42;;
12631;SDS011;6381;45.748;12.106;2023-07-31T05:33:57;4.03;;;2.60;;
12631;SDS011;6381;45.748;12.106;2023-07-31T05:36:27;3.13;;;2.33;;
12631;SDS011;6381;45.748;12.106;2023-07-31T05:38:58;2.45;;;2.20;;
12631;SDS011;6381;45.748;12.106;2023-07-31T05:41:28;2.40;;;2.20;;
12631;SDS011;6381;45.748;12.106;2023-07-31T05:44:00;3.28;;;2.20;;
12631;SDS011;6381;45.748;12.106;2023-07-31T05:46:30;2.70;;;2.30;;
12631;SDS011;6381;45.748;12.106;2023-07-31T05:49:00;3.22;;;2.25;;
12631;SDS011;6381;45.748;12.106;2023-07-31T05:51:30;2.90;;;2.42;;
12631;SDS011;6381;45.748;12.106;2023-07-31T05:54:00;2.58;;;2.25;;
12631;SDS011;6381;45.748;12.106;2023-07-31T05:56:30;3.88;;;2.30;;
12631;SDS011;6381;45.748;12.106;2023-07-31T05:59:03;2.45;;;2.13;;
12631;SDS011;6381;45.748;12.106;2023-07-31T06:01:33;1.92;;;1.83;;
12631;SDS011;6381;45.748;12.106;2023-07-31T06:04:04;2.40;;;2.20;;
12631;SDS011;6381;45.748;12.106;2023-07-31T06:06:34;2.22;;;2.03;;
12631;SDS011;6381;45.748;12.106;2023-07-31T06:09:05;19.42;;;4.55;;
12631;SDS011;6381;45.748;12.106;2023-07-31T06:11:35;3.45;;;2.50;;
12631;SDS011;6381;45.748;12.106;2023-07-31T06:14:07;2.95;;;2.10;;
12631;SDS011;6381;45.748;12.106;2023-07-31T06:16:37;5.85;;;2.70;;
12631;SDS011;6381;45.748;12.106;2023-07-31T06:19:07;3.75;;;2.10;;
12631;SDS011;6381;45.748;12.106;2023-07-31T06:21:38;4.50;;;2.00;;
12631;SDS011;6381;45.748;12.106;2023-07-31T06:24:09;7.18;;;2.30;;
12631;SDS011;6381;45.748;12.106;2023-07-31T06:26:41;8.00;;;2.78;;
12631;SDS011;6381;45.748;12.106;2023-07-31T06:29:12;6.88;;;2.20;;
12631;SDS011;6381;45.748;12.106;2023-07-31T06:31:42;2.67;;;1.92;;
12631;SDS011;6381;45.748;12.106;2023-07-31T06:34:13;1.88;;;1.67;;
12631;SDS011;6381;45.748;12.106;2023-07-31T06:36:44;2.13;;;1.92;;
12631;SDS011;6381;45.748;12.106;2023-07-31T06:39:15;2.30;;;1.77;;
12631;SDS011;6381;45.748;12.106;2023-07-31T06:41:47;3.78;;;1.95;;
12631;SDS011;6381;45.748;12.106;2023-07-31T06:44:21;2.67;;;1.75;;
12631;SDS011;6381;45.748;12.106;2023-07-31T06:46:51;2.65;;;2.10;;
12631;SDS011;6381;45.748;12.106;2023-07-31T06:49:22;2.50;;;2.00;;
12631;SDS011;6381;45.748;12.106;2023-07-31T06:51:53;2.67;;;1.80;;
12631;SDS011;6381;45.748;12.106;2023-07-31T06:54:23;2.67;;;1.98;;
12631;SDS011;6381;45.748;12.106;2023-07-31T06:56:53;2.63;;;2.30;;
12631;SDS011;6381;45.748;12.106;2023-07-31T06:59:25;2.20;;;2.00;;
12631;SDS011;6381;45.748;12.106;2023-07-31T07:01:55;2.33;;;1.80;;
12631;SDS011;6381;45.748;12.106;2023-07-31T07:04:25;2.10;;;1.90;;
12631;SDS011;6381;45.748;12.106;2023-07-31T07:06:56;3.03;;;2.10;;
12631;SDS011;6381;45.748;12.106;2023-07-31T07:09:27;2.25;;;2.00;;
12631;SDS011;6381;45.748;12.106;2023-07-31T07:11:57;2.50;;;2.15;;
12631;SDS011;6381;45.748;12.106;2023-07-31T07:14:29;3.63;;;2.05;;
12631;SDS011;6381;45.748;12.106;2023-07-31T07:16:59;4.20;;;1.92;;
12631;SDS011;6381;45.748;12.106;2023-07-31T07:19:29;4.22;;;2.28;;
12631;SDS011;6381;45.748;12.106;2023-07-31T07:21:59;4.47;;;2.15;;
12631;SDS011;6381;45.748;12.106;2023-07-31T07:24:29;2.22;;;1.85;;
12631;SDS011;6381;45.748;12.106;2023-07-31T07:26:59;2.83;;;1.90;;
12631;SDS011;6381;45.748;12.106;2023-07-31T07:29:31;2.97;;;2.13;;
12631;SDS011;6381;45.748;12.106;2023-07-31T07:32:03;2.10;;;1.90;;
12631;SDS011;6381;45.748;12.106;2023-07-31T07:34:34;3.72;;;2.13;;
12631;SDS011;6381;45.748;12.106;2023-07-31T07:37:05;2.90;;;2.20;;
12631;SDS011;6381;45.748;12.106;2023-07-31T07:39:36;3.53;;;2.00;;
12631;SDS011;6381;45.748;12.106;2023-07-31T07:42:06;4.13;;;2.30;;
12631;SDS011;6381;45.748;12.106;2023-07-31T07:44:38;3.65;;;2.17;;
12631;SDS011;6381;45.748;12.106;2023-07-31T07:47:09;3.03;;;2.00;;
12631;SDS011;6381;45.748;12.106;2023-07-31T07:49:40;4.10;;;2.13;;
12631;SDS011;6381;45.748;12.106;2023-07-31T07:52:17;2.72;;;2.13;;
12631;SDS011;6381;45.748;12.106;2023-07-31T07:54:47;5.13;;;2.20;;
12631;SDS011;6381;45.748;12.106;2023-07-31T07:57:17;2.47;;;2.20;;
12631;SDS011;6381;45.748;12.106;2023-07-31T07:59:49;3.88;;;2.03;;
12631;SDS011;6381;45.748;12.106;2023-07-31T08:02:21;2.55;;;1.88;;
12631;SDS011;6381;45.748;12.106;2023-07-31T08:04:52;5.53;;;2.00;;
12631;SDS011;6381;45.748;12.106;2023-07-31T08:07:22;4.60;;;1.95;;
12631;SDS011;6381;45.748;12.106;2023-07-31T08:09:52;6.28;;;2.20;;
12631;SDS011;6381;45.748;12.106;2023-07-31T08:12:22;3.72;;;1.90;;
12631;SDS011;6381;45.748;12.106;2023-07-31T08:14:54;2.42;;;1.73;;
12631;SDS011;6381;45.748;12.106;2023-07-31T08:17:24;5.22;;;2.03;;
12631;SDS011;6381;45.748;12.106;2023-07-31T08:19:55;7.13;;;2.40;;
12631;SDS011;6381;45.748;12.106;2023-07-31T08:22:26;11.45;;;3.22;;
12631;SDS011;6381;45.748;12.106;2023-07-31T08:24:56;13.77;;;3.28;;
12631;SDS011;6381;45.748;12.106;2023-07-31T08:27:26;8.75;;;2.53;;
12631;SDS011;6381;45.748;12.106;2023-07-31T08:29:58;4.45;;;2.30;;
12631;SDS011;6381;45.748;12.106;2023-07-31T08:32:29;2.55;;;1.80;;
12631;SDS011;6381;45.748;12.106;2023-07-31T08:34:59;3.83;;;2.20;;
12631;SDS011;6381;45.748;12.106;2023-07-31T08:37:30;3.97;;;2.15;;
12631;SDS011;6381;45.748;12.106;2023-07-31T08:40:00;3.25;;;2.40;;
12631;SDS011;6381;45.748;12.106;2023-07-31T08:42:30;3.63;;;2.28;;
12631;SDS011;6381;45.748;12.106;2023-07-31T08:45:02;5.53;;;2.20;;
12631;SDS011;6381;45.748;12.106;2023-07-31T08:47:34;4.20;;;2.30;;
12631;SDS011;6381;45.748;12.106;2023-07-31T08:50:09;4.20;;;2.72;;
12631;SDS011;6381;45.748;12.106;2023-07-31T08:52:41;5.53;;;2.40;;
12631;SDS011;6381;45.748;12.106;2023-07-31T08:55:12;9.77;;;2.60;;
12631;SDS011;6381;45.748;12.106;2023-07-31T08:57:43;6.40;;;2.70;;
12631;SDS011;6381;45.748;12.106;2023-07-31T09:00:17;5.22;;;2.50;;
12631;SDS011;6381;45.748;12.106;2023-07-31T09:02:52;8.60;;;2.83;;
12631;SDS011;6381;45.748;12.106;2023-07-31T09:05:29;5.47;;;2.70;;
12631;SDS011;6381;45.748;12.106;2023-07-31T09:08:04;3.45;;;2.20;;
12631;SDS011;6381;45.748;12.106;2023-07-31T09:10:36;2.53;;;1.92;;
12631;SDS011;6381;45.748;12.106;2023-07-31T09:13:10;4.47;;;2.38;;
12631;SDS011;6381;45.748;12.106;2023-07-31T09:15:43;2.40;;;2.08;;
12631;SDS011;6381;45.748;12.106;2023-07-31T09:18:15;4.65;;;1.98;;
12631;SDS011;6381;45.748;12.106;2023-07-31T09:20:51;3.85;;;1.92;;
12631;SDS011;6381;45.748;12.106;2023-07-31T09:23:40;2.95;;;1.90;;
12631;SDS011;6381;45.748;12.106;2023-07-31T09:26:12;5.18;;;2.33;;
12631;SDS011;6381;45.748;12.106;2023-07-31T09:28:59;4.45;;;2.10;;
12631;SDS011;6381;45.748;12.106;2023-07-31T09:31:33;2.70;;;2.08;;
12631;SDS011;6381;45.748;12.106;2023-07-31T09:34:09;4.78;;;2.20;;
12631;SDS011;6381;45.748;12.106;2023-07-31T09:36:41;3.70;;;2.33;;
12631;SDS011;6381;45.748;12.106;2023-07-31T09:39:12;3.33;;;1.90;;
12631;SDS011;6381;45.748;12.106;2023-07-31T09:41:44;2.83;;;2.10;;
12631;SDS011;6381;45.748;12.106;2023-07-31T09:44:17;2.85;;;2.15;;
12631;SDS011;6381;45.748;12.106;2023-07-31T09:46:49;2.35;;;1.73;;
12631;SDS011;6381;45.748;12.106;2023-07-31T09:49:19;3.33;;;2.30;;
12631;SDS011;6381;45.748;12.106;2023-07-31T09:51:49;3.00;;;2.17;;
12631;SDS011;6381;45.748;12.106;2023-07-31T09:54:20;4.63;;;2.30;;
12631;SDS011;6381;45.748;12.106;2023-07-31T09:56:50;4.38;;;1.98;;
12631;SDS011;6381;45.748;12.106;2023-07-31T09:59:21;2.58;;;2.00;;
12631;SDS011;6381;45.748;12.106;2023-07-31T10:01:53;3.10;;;2.10;;
12631;SDS011;6381;45.748;12.106;2023-07-31T10:04:26;3.13;;;2.30;;
12631;SDS011;6381;45.748;12.106;2023-07-31T10:06:57;2.58;;;1.92;;
12631;SDS011;6381;45.748;12.106;2023-07-31T10:09:30;2.33;;;2.10;;
12631;SDS011;6381;45.748;12.106;2023-07-31T10:12:02;2.60;;;1.98;;
12631;SDS011;6381;45.748;12.106;2023-07-31T10:14:39;4.72;;;2.15;;
12631;SDS011;6381;45.748;12.106;2023-07-31T10:17:12;3.03;;;2.47;;
12631;SDS011;6381;45.748;12.106;2023-07-31T10:19:44;3.50;;;2.00;;
12631;SDS011;6381;45.748;12.106;2023-07-31T10:22:15;2.35;;;1.90;;
12631;SDS011;6381;45.748;12.106;2023-07-31T10:24:46;2.20;;;2.00;;
12631;SDS011;6381;45.748;12.106;2023-07-31T10:27:19;2.60;;;2.40;;
12631;SDS011;6381;45.748;12.106;2023-07-31T10:29:49;2.63;;;2.03;;
12631;SDS011;6381;45.748;12.106;2023-07-31T10:32:22;2.53;;;2.33;;
12631;SDS011;6381;45.748;12.106;2023-07-31T10:34:54;2.13;;;1.92;;
12631;SDS011;6381;45.748;12.106;2023-07-31T10:37:25;5.25;;;2.30;;
12631;SDS011;6381;45.748;12.106;2023-07-31T10:39:58;2.97;;;2.17;;
12631;SDS011;6381;45.748;12.106;2023-07-31T10:42:30;2.30;;;2.10;;
12631;SDS011;6381;45.748;12.106;2023-07-31T10:45:02;3.17;;;2.30;;
12631;SDS011;6381;45.748;12.106;2023-07-31T10:47:39;2.80;;;2.10;;
12631;SDS011;6381;45.748;12.106;2023-07-31T10:50:14;2.22;;;2.00;;
12631;SDS011;6381;45.748;12.106;2023-07-31T10:52:47;2.13;;;1.92;;
12631;SDS011;6381;45.748;12.106;2023-07-31T10:55:27;2.72;;;2.15;;
12631;SDS011;6381;45.748;12.106;2023-07-31T10:58:05;2.30;;;2.10;;
12631;SDS011;6381;45.748;12.106;2023-07-31T11:00:37;2.75;;;1.90;;
12631;SDS011;6381;45.748;12.106;2023-07-31T11:03:10;4.13;;;2.50;;
12631;SDS011;6381;45.748;12.106;2023-07-31T11:05:42;2.60;;;2.38;;
12631;SDS011;6381;45.748;12.106;2023-07-31T11:08:18;3.10;;;2.28;;
12631;SDS011;6381;45.748;12.106;2023-07-31T11:10:50;2.50;;;2.30;;
12631;SDS011;6381;45.748;12.106;2023-07-31T11:13:34;3.35;;;2.13;;
12631;SDS011;6381;45.748;12.106;2023-07-31T11:16:11;4.53;;;2.42;;
12631;SDS011;6381;45.748;12.106;2023-07-31T11:18:44;3.00;;;2.38;;
12631;SDS011;6381;45.748;12.106;2023-07-31T11:21:17;2.40;;;2.20;;
12631;SDS011;6381;45.748;12.106;2023-07-31T11:23:50;2.40;;;2.10;;
12631;SDS011;6381;45.748;12.106;2023-07-31T11:26:24;4.13;;;2.05;;
12631;SDS011;6381;45.748;12.106;2023-07-31T11:28:55;2.35;;;2.15;;
12631;SDS011;6381;45.748;12.106;2023-07-31T11:31:24;3.25;;;2.25;;
12631;SDS011;6381;45.748;12.106;2023-07-31T11:34:05;2.53;;;2.03;;
12631;SDS011;6381;45.748;12.106;2023-07-31T11:36:36;2.58;;;1.70;;
12631;SDS011;6381;45.748;12.106;2023-07-31T11:39:07;3.92;;;2.30;;
12631;SDS011;6381;45.748;12.106;2023-07-31T11:41:40;2.38;;;1.90;;
12631;SDS011;6381;45.748;12.106;2023-07-31T11:44:11;3.30;;;2.03;;
12631;SDS011;6381;45.748;12.106;2023-07-31T11:46:53;2.30;;;2.10;;
12631;SDS011;6381;45.748;12.106;2023-07-31T11:49:27;3.15;;;2.22;;
12631;SDS011;6381;45.748;12.106;2023-07-31T11:52:01;2.30;;;2.10;;
12631;SDS011;6381;45.748;12.106;2023-07-31T11:54:31;3.00;;;2.00;;
12631;SDS011;6381;45.748;12.106;2023-07-31T11:57:02;4.55;;;2.22;;
12631;SDS011;6381;45.748;12.106;2023-07-31T11:59:38;2.58;;;2.30;;
12631;SDS011;6381;45.748;12.106;2023-07-31T12:02:09;2.70;;;1.90;;
12631;SDS011;6381;45.748;12.106;2023-07-31T12:04:41;2.20;;;2.00;;
12631;SDS011;6381;45.748;12.106;2023-07-31T12:07:11;2.35;;;2.00;;
12631;SDS011;6381;45.748;12.106;2023-07-31T12:09:50;2.92;;;2.10;;
12631;SDS011;6381;45.748;12.106;2023-07-31T12:12:22;2.22;;;1.80;;
12631;SDS011;6381;45.748;12.106;2023-07-31T12:14:54;3.10;;;2.30;;
12631;SDS011;6381;45.748;12.106;2023-07-31T12:17:25;2.50;;;2.30;;
12631;SDS011;6381;45.748;12.106;2023-07-31T12:19:56;2.05;;;1.75;;
12631;SDS011;6381;45.748;12.106;2023-07-31T12:22:28;1.73;;;1.63;;
12631;SDS011;6381;45.748;12.106;2023-07-31T12:24:58;2.92;;;1.73;;
12631;SDS011;6381;45.748;12.106;2023-07-31T12:27:32;3.08;;;1.92;;
12631;SDS011;6381;45.748;12.106;2023-07-31T12:30:03;2.20;;;2.00;;
12631;SDS011;6381;45.748;12.106;2023-07-31T12:32:35;2.20;;;1.98;;
12631;SDS011;6381;45.748;12.106;2023-07-31T12:35:08;2.10;;;1.90;;
12631;SDS011;6381;45.748;12.106;2023-07-31T12:37:38;2.35;;;1.90;;
12631;SDS011;6381;45.748;12.106;2023-07-31T12:40:10;3.47;;;1.80;;
12631;SDS011;6381;45.748;12.106;2023-07-31T12:42:43;2.72;;;2.20;;
12631;SDS011;6381;45.748;12.106;2023-07-31T12:45:13;2.83;;;2.22;;
12631;SDS011;6381;45.748;12.106;2023-07-31T12:47:44;2.97;;;2.25;;
12631;SDS011;6381;45.748;12.106;2023-07-31T12:50:16;2.58;;;2.10;;
12631;SDS011;6381;45.748;12.106;2023-07-31T12:52:47;2.50;;;2.20;;
12631;SDS011;6381;45.748;12.106;2023-07-31T12:55:23;4.07;;;2.10;;
12631;SDS011;6381;45.748;12.106;2023-07-31T12:57:53;2.70;;;2.05;;
12631;SDS011;6381;45.748;12.106;2023-07-31T13:00:24;2.10;;;1.92;;
12631;SDS011;6381;45.748;12.106;2023-07-31T13:02:55;3.88;;;2.10;;
12631;SDS011;6381;45.748;12.106;2023-07-31T13:05:27;1.90;;;1.77;;
12631;SDS011;6381;45.748;12.106;2023-07-31T13:07:57;3.15;;;2.20;;
12631;SDS011;6381;45.748;12.106;2023-07-31T13:10:28;2.33;;;2.13;;
12631;SDS011;6381;45.748;12.106;2023-07-31T13:12:59;2.63;;;2.42;;
12631;SDS011;6381;45.748;12.106;2023-07-31T13:15:30;3.47;;;1.88;;
12631;SDS011;6381;45.748;12.106;2023-07-31T13:18:00;2.95;;;2.00;;
12631;SDS011;6381;45.748;12.106;2023-07-31T13:20:32;2.13;;;1.90;;
12631;SDS011;6381;45.748;12.106;2023-07-31T13:23:02;3.97;;;1.88;;
12631;SDS011;6381;45.748;12.106;2023-07-31T13:25:33;2.00;;;1.80;;
12631;SDS011;6381;45.748;12.106;2023-07-31T13:28:03;2.13;;;1.90;;
12631;SDS011;6381;45.748;12.106;2023-07-31T13:30:33;3.28;;;1.90;;
12631;SDS011;6381;45.748;12.106;2023-07-31T13:33:03;2.13;;;1.92;;
12631;SDS011;6381;45.748;12.106;2023-07-31T13:35:57;1.80;;;1.70;;
12631;SDS011;6381;45.748;12.106;2023-07-31T13:38:28;2.35;;;2.03;;
12631;SDS011;6381;45.748;12.106;2023-07-31T13:40:58;4.20;;;1.98;;
12631;SDS011;6381;45.748;12.106;2023-07-31T13:43:28;2.80;;;2.13;;
12631;SDS011;6381;45.748;12.106;2023-07-31T13:45:58;3.67;;;2.13;;
12631;SDS011;6381;45.748;12.106;2023-07-31T13:48:34;3.88;;;1.80;;
12631;SDS011;6381;45.748;12.106;2023-07-31T13:51:06;2.30;;;2.10;;
12631;SDS011;6381;45.748;12.106;2023-07-31T13:53:37;3.05;;;1.90;;
12631;SDS011;6381;45.748;12.106;2023-07-31T13:56:08;1.98;;;1.80;;
12631;SDS011;6381;45.748;12.106;2023-07-31T13:58:38;2.30;;;1.85;;
12631;SDS011;6381;45.748;12.106;2023-07-31T14:01:10;2.50;;;2.13;;
12631;SDS011;6381;45.748;12.106;2023-07-31T14:03:41;2.55;;;1.95;;
12631;SDS011;6381;45.748;12.106;2023-07-31T14:06:15;1.80;;;1.70;;
12631;SDS011;6381;45.748;12.106;2023-07-31T14:08:45;2.00;;;1.80;;
12631;SDS011;6381;45.748;12.106;2023-07-31T14:11:15;3.58;;;2.08;;
12631;SDS011;6381;45.748;12.106;2023-07-31T14:13:46;2.70;;;2.10;;
12631;SDS011;6381;45.748;12.106;2023-07-31T14:16:16;2.45;;;1.98;;
12631;SDS011;6381;45.748;12.106;2023-07-31T14:18:48;3.40;;;2.17;;
12631;SDS011;6381;45.748;12.106;2023-07-31T14:21:23;2.33;;;1.90;;
12631;SDS011;6381;45.748;12.106;2023-07-31T14:23:53;4.80;;;2.13;;
12631;SDS011;6381;45.748;12.106;2023-07-31T14:26:24;2.60;;;1.80;;
12631;SDS011;6381;45.748;12.106;2023-07-31T14:28:54;2.33;;;1.83;;
12631;SDS011;6381;45.748;12.106;2023-07-31T14:31:24;1.80;;;1.70;;
12631;SDS011;6381;45.748;12.106;2023-07-31T14:33:55;2.28;;;2.08;;
12631;SDS011;6381;45.748;12.106;2023-07-31T14:36:27;2.10;;;1.90;;
12631;SDS011;6381;45.748;12.106;2023-07-31T14:38:59;2.70;;;1.90;;
12631;SDS011;6381;45.748;12.106;2023-07-31T14:41:31;2.30;;;2.10;;
12631;SDS011;6381;45.748;12.106;2023-07-31T14:44:02;2.30;;;2.05;;
12631;SDS011;6381;45.748;12.106;2023-07-31T14:46:32;2.92;;;2.00;;
12631;SDS011;6381;45.748;12.106;2023-07-31T14:49:03;2.33;;;1.92;;
12631;SDS011;6381;45.748;12.106;2023-07-31T14:51:35;3.20;;;1.90;;
12631;SDS011;6381;45.748;12.106;2023-07-31T14:54:06;4.75;;;2.30;;
12631;SDS011;6381;45.748;12.106;2023-07-31T14:56:36;3.92;;;2.20;;
12631;SDS011;6381;45.748;12.106;2023-07-31T14:59:07;3.78;;;2.15;;
12631;SDS011;6381;45.748;12.106;2023-07-31T15:01:37;6.63;;;2.45;;
12631;SDS011;6381;45.748;12.106;2023-07-31T15:04:09;2.38;;;2.17;;
12631;SDS011;6381;45.748;12.106;2023-07-31T15:06:41;1.92;;;1.77;;
12631;SDS011;6381;45.748;12.106;2023-07-31T15:09:11;2.50;;;2.00;;
12631;SDS011;6381;45.748;12.106;2023-07-31T15:11:42;2.45;;;2.25;;
12631;SDS011;6381;45.748;12.106;2023-07-31T15:14:12;4.18;;;2.00;;